Time;durP1;ratioP1;P1;durP2;ratioP2;P2;SDS_P1;SDS_P2;PMS_P1;PMS_P2;Temp;Humidity;BMP_temperature;BMP_pressure;BME280_temperature;BME280_humidity;BME280_pressure;Samples;Min_cycle;Max_cycle;Signal;HPM_P1;HPM_P2
2022/09/01 00:00:13;;;;;;;3.67;2.50;;;8.90;99.90;;;;;;5017474;28;20438;-79
2022/09/01 00:02:42;;;;;;;4.63;2.80;;;8.90;99.90;;;;;;5015188;28;20494;-80
2022/09/01 00:05:11;;;;;;;4.00;2.30;;;8.90;99.90;;;;;;5016888;28;20777;-80
2022/09/01 00:07:39;;;;;;;4.00;2.45;;;8.80;99.90;;;;;;5019966;28;20500;-79
2022/09/01 00:10:07;;;;;;;4.18;2.40;;;8.80;99.90;;;;;;5019988;28;20793;-79
2022/09/01 00:12:35;;;;;;;3.45;2.50;;;8.90;99.90;;;;;;5017811;28;20384;-79
2022/09/01 00:15:06;;;;;;;3.22;2.50;;;8.90;99.90;;;;;;5014191;28;20737;-79
2022/09/01 00:17:33;;;;;;;3.57;2.53;;;8.80;99.90;;;;;;5014166;28;20395;-79
2022/09/01 00:20:02;;;;;;;3.65;2.60;;;8.80;99.90;;;;;;5051520;28;20873;-79
2022/09/01 00:22:32;;;;;;;4.43;2.55;;;8.80;99.90;;;;;;5007829;28;20406;-80
2022/09/01 00:25:00;;;;;;;3.45;2.30;;;8.80;99.90;;;;;;5009283;28;20399;-80
2022/09/01 00:27:28;;;;;;;3.90;2.60;;;8.80;99.90;;;;;;5016529;28;20900;-81
2022/09/01 00:29:58;;;;;;;4.22;2.45;;;8.80;99.90;;;;;;5016258;28;20396;-79
2022/09/01 00:32:27;;;;;;;3.95;2.40;;;8.80;99.90;;;;;;5033110;28;20406;-80
2022/09/01 00:34:55;;;;;;;4.27;2.90;;;8.80;99.90;;;;;;5033540;28;20756;-79
2022/09/01 00:37:22;;;;;;;3.67;2.70;;;8.80;99.90;;;;;;5014130;28;20408;-79
2022/09/01 00:39:50;;;;;;;4.22;2.45;;;8.70;99.90;;;;;;5000000;28;20426;-79
2022/09/01 00:42:18;;;;;;;5.32;2.70;;;8.70;99.90;;;;;;5017262;28;20905;-80
2022/09/01 00:44:46;;;;;;;3.83;2.67;;;8.70;99.90;;;;;;5015871;28;20400;-80
2022/09/01 00:47:14;;;;;;;3.47;2.60;;;8.60;99.90;;;;;;5018768;28;20508;-80
2022/09/01 00:49:47;;;;;;;3.20;2.40;;;8.60;99.90;;;;;;5013128;28;20407;-79
2022/09/01 00:52:16;;;;;;;3.90;2.90;;;8.60;99.90;;;;;;5016767;28;20470;-79
2022/09/01 00:54:49;;;;;;;5.05;2.90;;;8.60;99.90;;;;;;5015149;28;20396;-79
2022/09/01 00:57:17;;;;;;;4.30;2.50;;;8.60;99.90;;;;;;5046887;28;20494;-79
2022/09/01 00:59:57;;;;;;;4.47;2.53;;;8.50;99.90;;;;;;5017144;28;20583;-81
2022/09/01 01:02:25;;;;;;;2.97;2.42;;;8.50;99.90;;;;;;5016341;28;20405;-80
2022/09/01 01:04:54;;;;;;;3.30;2.50;;;8.40;99.90;;;;;;5009360;28;20471;-80
2022/09/01 01:07:22;;;;;;;3.63;2.72;;;8.50;99.90;;;;;;5016633;28;21042;-80
2022/09/01 01:09:50;;;;;;;4.87;2.73;;;8.50;99.90;;;;;;5010643;28;20436;-79
2022/09/01 01:12:19;;;;;;;5.03;2.70;;;8.50;99.90;;;;;;5019247;28;20399;-79
2022/09/01 01:14:49;;;;;;;5.30;2.70;;;8.40;99.90;;;;;;5031951;28;20430;-80
2022/09/01 01:17:20;;;;;;;5.32;3.08;;;8.40;99.90;;;;;;5006291;28;20486;-80
2022/09/01 01:23:04;;;;;;;5.40;2.90;;;8.40;99.90;;;;;;5016241;28;20398;-79
2022/09/01 01:25:47;;;;;;;4.97;2.93;;;8.40;99.90;;;;;;5020381;28;20447;-80
2022/09/01 01:28:21;;;;;;;5.05;2.95;;;8.30;99.90;;;;;;5016461;28;20422;-80
2022/09/01 01:31:01;;;;;;;4.87;2.80;;;8.30;99.90;;;;;;5029944;28;20478;-79
2022/09/01 01:33:40;;;;;;;4.70;2.63;;;8.30;99.90;;;;;;5008969;28;20456;-79
2022/09/01 01:36:14;;;;;;;4.25;2.67;;;8.30;99.90;;;;;;5017510;28;20411;-80
2022/09/01 01:38:47;;;;;;;4.13;2.90;;;8.30;99.90;;;;;;5020382;28;20887;-80
2022/09/01 01:41:18;;;;;;;5.40;3.75;;;8.30;99.90;;;;;;5016742;28;20485;-79
2022/09/01 01:43:47;;;;;;;3.90;2.63;;;8.20;99.90;;;;;;5015912;28;20919;-80
2022/09/01 01:46:16;;;;;;;4.38;2.70;;;8.10;99.90;;;;;;5013972;28;20417;-79
2022/09/01 01:48:46;;;;;;;5.03;3.13;;;8.10;99.90;;;;;;5043657;28;20500;-79
2022/09/01 01:51:19;;;;;;;7.20;3.08;;;8.00;99.90;;;;;;5019102;28;20413;-80
2022/09/01 01:53:51;;;;;;;4.25;3.20;;;8.00;99.90;;;;;;5019033;28;20396;-81
2022/09/01 01:56:23;;;;;;;5.38;3.10;;;8.00;99.90;;;;;;5017318;28;20405;-80
2022/09/01 01:58:54;;;;;;;5.40;3.30;;;8.10;99.90;;;;;;5020707;28;20430;-80
2022/09/01 02:01:24;;;;;;;3.88;2.88;;;8.10;99.90;;;;;;5028940;28;20910;-80
2022/09/01 02:03:53;;;;;;;4.28;2.70;;;8.10;99.90;;;;;;5017110;28;20454;-80
2022/09/01 02:06:24;;;;;;;4.50;2.83;;;8.10;99.90;;;;;;5021839;28;20429;-79
2022/09/01 02:08:56;;;;;;;4.97;2.60;;;8.10;99.90;;;;;;5019990;28;20967;-79
2022/09/01 02:11:25;;;;;;;4.18;3.10;;;8.10;99.90;;;;;;5018906;28;20421;-79
2022/09/01 02:13:55;;;;;;;5.00;2.90;;;8.00;99.90;;;;;;5018824;28;20474;-81
2022/09/01 02:16:24;;;;;;;6.03;3.42;;;8.00;99.90;;;;;;5019622;28;20401;-79
2022/09/01 02:18:52;;;;;;;8.52;2.75;;;8.00;99.90;;;;;;5021140;28;20410;-80
2022/09/01 02:21:22;;;;;;;4.80;2.80;;;8.00;99.90;;;;;;5013379;28;20410;-81
2022/09/01 02:24:02;;;;;;;4.07;2.80;;;7.90;99.90;;;;;;5019114;28;20401;-80
2022/09/01 02:26:41;;;;;;;3.75;2.38;;;7.90;99.90;;;;;;5023934;28;20434;-79
2022/09/01 02:29:17;;;;;;;4.00;2.90;;;7.90;99.90;;;;;;5020341;28;20438;-80
2022/09/01 02:31:49;;;;;;;4.97;3.30;;;7.90;99.90;;;;;;5017388;28;20805;-80
2022/09/01 02:34:18;;;;;;;4.60;3.03;;;7.90;99.90;;;;;;5015770;28;20531;-80
2022/09/01 02:36:49;;;;;;;4.60;2.75;;;7.90;99.90;;;;;;5020555;28;20397;-79
2022/09/01 02:39:28;;;;;;;3.78;2.60;;;7.90;99.90;;;;;;5053337;27;20816;-81
2022/09/01 02:41:56;;;;;;;3.67;2.72;;;7.90;99.90;;;;;;5018014;28;20431;-78
2022/09/01 02:44:27;;;;;;;3.83;2.70;;;7.90;99.90;;;;;;5019431;28;20459;-80
2022/09/01 02:46:56;;;;;;;3.57;2.60;;;7.90;99.90;;;;;;5020079;28;20501;-80
2022/09/01 02:49:27;;;;;;;4.03;2.58;;;7.80;99.90;;;;;;5008372;28;20838;-80
2022/09/01 02:52:00;;;;;;;3.75;2.40;;;7.80;99.90;;;;;;5013737;28;20943;-80
2022/09/01 02:54:31;;;;;;;3.43;2.80;;;7.80;99.90;;;;;;5012710;28;20412;-80
2022/09/01 02:56:59;;;;;;;4.53;2.83;;;7.80;99.90;;;;;;5011561;28;20502;-79
2022/09/01 02:59:29;;;;;;;4.20;2.38;;;7.80;99.90;;;;;;5013689;28;20934;-80
2022/09/01 03:01:59;;;;;;;4.57;3.10;;;7.80;99.90;;;;;;5025506;28;20386;-80
2022/09/01 03:04:33;;;;;;;3.60;2.60;;;7.80;99.90;;;;;;5019333;28;20409;-80
2022/09/01 03:07:04;;;;;;;3.50;2.40;;;7.70;99.90;;;;;;5008705;28;20404;-80
2022/09/01 03:09:32;;;;;;;4.45;2.70;;;7.80;99.90;;;;;;5009605;28;20438;-80
2022/09/01 03:12:00;;;;;;;4.50;2.67;;;7.70;99.90;;;;;;4992119;28;20421;-80
2022/09/01 03:14:28;;;;;;;3.85;2.58;;;7.70;99.90;;;;;;5008472;28;20432;-80
2022/09/01 03:16:56;;;;;;;5.50;2.92;;;7.60;99.90;;;;;;5016336;28;20769;-81
2022/09/01 03:19:24;;;;;;;4.97;2.65;;;7.60;99.90;;;;;;4994638;28;20494;-80
2022/09/01 03:21:51;;;;;;;4.50;2.42;;;7.60;99.90;;;;;;5010674;28;20498;-80
2022/09/01 03:24:23;;;;;;;3.72;2.55;;;7.60;99.90;;;;;;5028246;28;20389;-80
2022/09/01 03:26:51;;;;;;;3.58;2.40;;;7.60;99.90;;;;;;5054897;27;20414;-79
2022/09/01 03:29:19;;;;;;;3.67;2.55;;;7.60;99.90;;;;;;5017381;28;20412;-79
2022/09/01 03:31:47;;;;;;;4.38;2.58;;;7.60;99.90;;;;;;5017675;28;20406;-80
2022/09/01 03:34:17;;;;;;;4.00;2.43;;;7.60;99.90;;;;;;5015732;28;20410;-79
2022/09/01 03:36:49;;;;;;;3.35;2.45;;;7.60;99.90;;;;;;5047964;28;20401;-81
2022/09/01 03:39:24;;;;;;;4.32;2.85;;;7.60;99.90;;;;;;5020877;28;20422;-80
2022/09/01 03:41:52;;;;;;;3.87;2.73;;;7.50;99.90;;;;;;5034964;28;20397;-80
2022/09/01 03:44:20;;;;;;;4.05;3.13;;;7.50;99.90;;;;;;5019042;28;20388;-81
2022/09/01 03:46:47;;;;;;;5.17;3.13;;;7.50;99.90;;;;;;5018005;28;20405;-81
2022/09/01 03:49:15;;;;;;;3.75;2.75;;;7.50;99.90;;;;;;5000901;28;20410;-81
2022/09/01 03:51:43;;;;;;;6.43;3.03;;;7.50;99.90;;;;;;5017211;28;20408;-80
2022/09/01 03:54:12;;;;;;;4.72;2.47;;;7.40;99.90;;;;;;5017157;28;20936;-79
2022/09/01 03:56:41;;;;;;;4.82;2.78;;;7.40;99.90;;;;;;5017116;28;20795;-80
2022/09/01 03:59:18;;;;;;;4.30;2.70;;;7.40;99.90;;;;;;5017018;28;20420;-79
2022/09/01 04:01:47;;;;;;;3.80;2.85;;;7.40;99.90;;;;;;5050148;28;20437;-80
2022/09/01 04:04:15;;;;;;;5.25;2.70;;;7.40;99.90;;;;;;5017450;28;20408;-80
2022/09/01 04:06:45;;;;;;;4.40;2.97;;;7.40;99.90;;;;;;5020268;28;20420;-79
2022/09/01 04:09:13;;;;;;;4.72;2.80;;;7.30;99.90;;;;;;5017917;28;20506;-80
2022/09/01 04:11:45;;;;;;;4.05;2.50;;;7.40;99.90;;;;;;5007096;28;20396;-80
2022/09/01 04:14:16;;;;;;;5.43;3.22;;;7.30;99.90;;;;;;5047114;28;21957;-80
2022/09/01 04:19:38;;;;;;;4.45;3.10;;;7.30;99.90;;;;;;5015332;28;20416;-79
2022/09/01 04:22:13;;;;;;;11.47;3.23;;;7.40;99.90;;;;;;5012549;28;20978;-81
2022/09/01 04:24:44;;;;;;;6.77;3.10;;;7.40;99.90;;;;;;5018501;28;20418;-80
2022/09/01 04:27:14;;;;;;;7.88;3.10;;;7.40;99.90;;;;;;5007009;28;20411;-81
2022/09/01 04:29:45;;;;;;;4.70;2.90;;;7.40;99.90;;;;;;5016356;28;20933;-80
2022/09/01 04:32:14;;;;;;;4.90;3.30;;;7.50;99.90;;;;;;5023554;28;20780;-80
2022/09/01 04:34:48;;;;;;;4.78;3.13;;;7.50;99.90;;;;;;5006754;28;20401;-79
2022/09/01 04:37:19;;;;;;;5.17;3.43;;;7.50;99.90;;;;;;5008500;28;20870;-80
2022/09/01 04:39:57;;;;;;;3.80;2.70;;;7.60;99.90;;;;;;5018165;28;20418;-78
2022/09/01 04:42:28;;;;;;;4.80;3.00;;;7.50;99.90;;;;;;5007538;28;20441;-79
2022/09/01 04:44:59;;;;;;;5.13;2.90;;;7.50;99.90;;;;;;5012262;28;20398;-78
2022/09/01 04:47:44;;;;;;;3.83;2.50;;;7.60;99.90;;;;;;4997828;28;20407;-79
2022/09/01 04:50:16;;;;;;;6.00;3.63;;;7.60;99.90;;;;;;5006799;28;20812;-79
2022/09/01 04:53:04;;;;;;;4.80;3.35;;;7.60;99.90;;;;;;5017366;28;20429;-78
2022/09/01 04:55:43;;;;;;;6.22;3.60;;;7.70;99.90;;;;;;5014407;28;20490;-78
2022/09/01 04:58:16;;;;;;;4.67;3.33;;;7.60;99.90;;;;;;5015626;28;20394;-78
2022/09/01 05:00:48;;;;;;;4.77;2.87;;;7.60;99.90;;;;;;5007069;28;20429;-79
2022/09/01 05:03:20;;;;;;;4.30;2.38;;;7.60;99.90;;;;;;5012571;28;20947;-81
2022/09/01 05:06:02;;;;;;;3.63;2.60;;;7.60;99.90;;;;;;5008669;28;20439;-78
2022/09/01 05:08:33;;;;;;;4.47;2.83;;;7.60;99.90;;;;;;5016501;28;20411;-80
2022/09/01 05:11:08;;;;;;;3.90;2.70;;;7.70;99.90;;;;;;5016285;28;20408;-80
2022/09/01 05:13:44;;;;;;;4.00;2.72;;;7.70;99.90;;;;;;5049414;28;20437;-80
2022/09/01 05:16:18;;;;;;;3.58;2.75;;;7.70;99.90;;;;;;5012917;28;20412;-80
2022/09/01 05:18:57;;;;;;;3.85;2.75;;;7.80;99.90;;;;;;5010612;28;20484;-80
2022/09/01 05:21:29;;;;;;;4.07;2.65;;;7.80;99.90;;;;;;5006580;28;20428;-80
2022/09/01 05:24:03;;;;;;;4.43;2.25;;;7.80;99.90;;;;;;5023979;28;20453;-80
2022/09/01 05:26:33;;;;;;;5.15;2.40;;;7.80;99.90;;;;;;5009792;28;20460;-80
2022/09/01 05:29:03;;;;;;;3.72;2.42;;;7.90;99.90;;;;;;5010084;28;20403;-80
2022/09/01 05:31:33;;;;;;;4.20;2.45;;;7.90;99.90;;;;;;5043239;28;20395;-79
2022/09/01 05:34:02;;;;;;;2.72;2.00;;;7.90;99.90;;;;;;5010446;28;20525;-80
2022/09/01 05:36:32;;;;;;;3.90;2.15;;;7.90;99.90;;;;;;5043174;28;20448;-80
2022/09/01 05:39:03;;;;;;;2.90;2.03;;;7.90;99.90;;;;;;5009985;28;20427;-80
2022/09/01 05:41:34;;;;;;;3.25;2.25;;;7.90;99.90;;;;;;5011273;28;20435;-80
2022/09/01 05:44:06;;;;;;;4.28;2.10;;;7.90;99.90;;;;;;5010117;28;20895;-81
2022/09/01 05:46:38;;;;;;;4.25;2.17;;;7.90;99.90;;;;;;5009974;28;20755;-80
2022/09/01 05:49:12;;;;;;;3.30;1.90;;;7.90;99.90;;;;;;5011184;28;20411;-80
2022/09/01 05:51:42;;;;;;;4.72;2.17;;;7.90;99.90;;;;;;5043012;28;20881;-80
2022/09/01 05:54:21;;;;;;;3.35;2.08;;;7.90;99.90;;;;;;5009835;28;20403;-80
2022/09/01 05:56:52;;;;;;;3.23;2.10;;;7.90;99.90;;;;;;5009924;28;20396;-80
2022/09/01 05:59:26;;;;;;;2.55;1.65;;;8.00;99.90;;;;;;5009804;28;20873;-80
2022/09/01 06:01:59;;;;;;;3.83;2.13;;;8.10;99.90;;;;;;5009819;28;20486;-80
2022/09/01 06:04:28;;;;;;;3.20;1.90;;;8.10;99.90;;;;;;5010977;28;20419;-80
2022/09/01 06:07:07;;;;;;;3.28;1.83;;;8.20;99.90;;;;;;5011220;28;20388;-80
2022/09/01 06:09:47;;;;;;;3.45;1.75;;;8.20;99.90;;;;;;4994663;28;20495;-80
2022/09/01 06:12:19;;;;;;;2.30;1.77;;;8.30;99.90;;;;;;5009574;28;20461;-81
2022/09/01 06:14:50;;;;;;;4.63;1.88;;;8.30;99.90;;;;;;5009710;28;20392;-80
2022/09/01 06:17:26;;;;;;;3.10;1.80;;;8.30;99.90;;;;;;5009516;28;20833;-81
2022/09/01 06:19:57;;;;;;;2.87;1.70;;;8.40;99.90;;;;;;5009613;28;20448;-80
2022/09/01 06:22:27;;;;;;;3.10;1.80;;;8.50;99.90;;;;;;5009384;28;20414;-81
2022/09/01 06:24:58;;;;;;;4.70;1.60;;;8.50;99.90;;;;;;5009629;28;20422;-80
2022/09/01 06:27:40;;;;;;;3.88;1.80;;;8.50;99.90;;;;;;5009397;28;20399;-80
2022/09/01 06:30:16;;;;;;;2.67;1.63;;;8.50;99.90;;;;;;5009743;28;20490;-81
2022/09/01 06:32:54;;;;;;;2.78;1.50;;;8.60;99.90;;;;;;5009422;28;20453;-81
2022/09/01 06:35:28;;;;;;;2.40;1.40;;;8.70;99.90;;;;;;5008523;28;20490;-80
2022/09/01 06:37:57;;;;;;;3.47;1.40;;;8.70;99.90;;;;;;5009315;28;20558;-80
2022/09/01 06:40:40;;;;;;;2.50;1.67;;;8.70;99.90;;;;;;5009242;28;20815;-80
2022/09/01 06:43:10;;;;;;;2.45;1.65;;;8.80;99.90;;;;;;4993372;28;20761;-80
2022/09/01 06:45:44;;;;;;;3.90;1.60;;;8.80;99.90;;;;;;5010475;28;20392;-80
2022/09/01 06:48:16;;;;;;;3.57;1.27;;;8.90;99.90;;;;;;5009136;28;20388;-80
2022/09/01 06:50:44;;;;;;;3.63;1.40;;;9.00;99.90;;;;;;5009409;28;20399;-81
2022/09/01 06:53:33;;;;;;;2.50;1.35;;;9.10;99.90;;;;;;5008949;28;20761;-80
2022/09/01 06:56:05;;;;;;;3.40;1.60;;;9.10;99.90;;;;;;5009112;28;20392;-79
2022/09/01 06:58:33;;;;;;;2.53;1.30;;;9.20;99.90;;;;;;5008971;28;20407;-80
2022/09/01 07:01:14;;;;;;;2.53;1.20;;;9.20;99.90;;;;;;5009090;28;20398;-81
2022/09/01 07:03:44;;;;;;;4.43;1.33;;;9.20;99.90;;;;;;5042086;28;20486;-80
2022/09/01 07:06:16;;;;;;;2.28;1.20;;;9.30;99.90;;;;;;5009119;28;20567;-80
2022/09/01 07:09:16;;;;;;;1.77;1.00;;;9.40;99.90;;;;;;5010021;28;20399;-80
2022/09/01 07:12:06;;;;;;;2.60;1.20;;;9.40;99.90;;;;;;5009932;28;20399;-80
2022/09/01 07:14:54;;;;;;;3.00;1.00;;;9.50;99.90;;;;;;5008775;28;20400;-79
2022/09/01 07:17:51;;;;;;;1.80;1.10;;;9.50;99.90;;;;;;5008646;28;20427;-80
2022/09/01 07:20:24;;;;;;;1.60;1.23;;;9.50;99.90;;;;;;5008670;28;20901;-81
2022/09/01 07:23:11;;;;;;;1.77;1.10;;;9.50;99.90;;;;;;5008416;28;20410;-80
2022/09/01 07:25:42;;;;;;;2.13;1.30;;;9.60;99.90;;;;;;5008562;28;20451;-80
2022/09/01 07:28:32;;;;;;;1.73;1.00;;;9.70;99.90;;;;;;5008404;28;20430;-80
2022/09/01 07:31:04;;;;;;;2.00;1.00;;;9.70;99.90;;;;;;5009133;28;20833;-80
2022/09/01 07:33:57;;;;;;;1.77;0.90;;;9.80;99.90;;;;;;5008325;28;20491;-80
2022/09/01 07:36:46;;;;;;;1.60;1.10;;;9.90;99.90;;;;;;5027825;27;20399;-80
2022/09/01 07:39:39;;;;;;;1.98;1.02;;;9.80;99.90;;;;;;5008272;28;20407;-79
2022/09/01 07:42:41;;;;;;;1.25;0.93;;;9.80;99.90;;;;;;5008285;28;20433;-81
2022/09/01 07:45:58;;;;;;;1.60;1.00;;;9.90;99.90;;;;;;5017464;28;20403;-79
2022/09/01 07:48:28;;;;;;;1.30;1.13;;;9.90;99.90;;;;;;4992207;28;20403;-81
2022/09/01 07:51:19;;;;;;;2.33;1.10;;;10.00;99.90;;;;;;5027579;28;20407;-80
2022/09/01 07:54:05;;;;;;;1.73;1.03;;;10.00;99.90;;;;;;5027417;28;20395;-80
2022/09/01 07:56:33;;;;;;;2.08;1.20;;;10.10;99.90;;;;;;5008125;28;20392;-78
2022/09/01 07:59:08;;;;;;;1.65;1.00;;;10.00;99.90;;;;;;5041144;28;20391;-80
2022/09/01 08:02:05;;;;;;;1.98;1.13;;;10.00;99.90;;;;;;5028562;28;20399;-80
2022/09/01 08:04:34;;;;;;;3.42;1.20;;;10.00;99.90;;;;;;5040979;28;20400;-79
2022/09/01 08:07:04;;;;;;;1.10;0.95;;;10.00;99.90;;;;;;5008101;28;20403;-80
2022/09/01 08:09:36;;;;;;;1.85;0.90;;;10.00;99.90;;;;;;5007830;28;20410;-80
2022/09/01 08:12:11;;;;;;;1.43;0.87;;;10.20;99.90;;;;;;4992783;28;20483;-79
2022/09/01 08:14:45;;;;;;;1.53;0.90;;;10.30;99.90;;;;;;5008183;28;20967;-81
2022/09/01 08:17:13;;;;;;;1.70;0.90;;;10.40;99.90;;;;;;5007302;28;20762;-80
2022/09/01 08:20:08;;;;;;;1.63;0.80;;;10.40;99.90;;;;;;5007848;28;20407;-81
2022/09/01 08:22:50;;;;;;;2.17;1.05;;;10.60;99.90;;;;;;5007724;28;20494;-80
2022/09/01 08:25:29;;;;;;;1.65;0.90;;;10.50;99.90;;;;;;5007954;28;20494;-80
2022/09/01 08:28:01;;;;;;;2.30;0.80;;;10.60;99.90;;;;;;5007326;28;21356;-80
2022/09/01 08:30:31;;;;;;;1.52;0.82;;;10.60;99.90;;;;;;5040769;28;20433;-80
2022/09/01 08:33:00;;;;;;;0.80;0.77;;;10.60;99.90;;;;;;5007624;28;20457;-80
2022/09/01 08:35:39;;;;;;;1.85;0.70;;;10.70;99.90;;;;;;5007677;28;20812;-80
2022/09/01 08:38:07;;;;;;;1.80;0.80;;;10.70;99.90;;;;;;5008828;28;20432;-80
2022/09/01 08:40:36;;;;;;;0.75;0.70;;;10.80;99.90;;;;;;5007493;28;20392;-80
2022/09/01 08:43:35;;;;;;;1.48;0.80;;;10.90;99.90;;;;;;5007572;28;20452;-80
2022/09/01 08:46:27;;;;;;;0.90;0.70;;;11.00;99.90;;;;;;5015923;28;20391;-80
2022/09/01 08:48:58;;;;;;;0.90;0.70;;;10.90;99.90;;;;;;5007686;28;20395;-80
2022/09/01 08:52:19;;;;;;;0.70;0.70;;;10.80;99.90;;;;;;5008451;28;20387;-80
2022/09/01 08:55:13;;;;;;;0.90;0.70;;;10.90;99.90;;;;;;5007474;28;20765;-80
2022/09/01 08:57:44;;;;;;;0.70;0.60;;;11.00;99.90;;;;;;5009027;28;20482;-79
2022/09/01 09:00:43;;;;;;;0.90;0.70;;;11.00;99.90;;;;;;4990917;28;20823;-80
2022/09/01 09:03:32;;;;;;;1.00;0.70;;;11.10;99.90;;;;;;5010957;28;20426;-79
2022/09/01 09:06:16;;;;;;;0.90;0.68;;;11.20;99.90;;;;;;5012248;28;20448;-81
2022/09/01 09:08:56;;;;;;;1.30;0.60;;;11.30;99.90;;;;;;5012216;28;20474;-80
2022/09/01 09:11:49;;;;;;;1.10;0.70;;;11.30;99.90;;;;;;5010888;28;20824;-81
2022/09/01 09:14:48;;;;;;;1.45;0.70;;;11.30;99.90;;;;;;5011748;28;20470;-79
2022/09/01 09:17:20;;;;;;;1.83;0.60;;;11.40;99.90;;;;;;5011843;28;20444;-80
2022/09/01 09:19:48;;;;;;;1.60;0.70;;;11.60;99.90;;;;;;5010694;28;20486;-80
2022/09/01 09:22:18;;;;;;;1.02;0.70;;;11.70;99.90;;;;;;5010388;28;20414;-81
2022/09/01 09:24:59;;;;;;;1.40;0.70;;;11.80;99.90;;;;;;5010512;28;20422;-82
2022/09/01 09:27:36;;;;;;;1.13;0.60;;;11.90;99.90;;;;;;5010574;28;20865;-78
2022/09/01 09:30:12;;;;;;;1.02;0.80;;;11.80;99.90;;;;;;5010500;28;20407;-80
2022/09/01 09:32:52;;;;;;;1.67;0.80;;;11.60;99.90;;;;;;5010503;28;20792;-79
2022/09/01 09:35:41;;;;;;;3.05;1.15;;;11.50;99.90;;;;;;5011491;28;20499;-81
2022/09/01 09:38:31;;;;;;;2.53;0.80;;;11.50;99.90;;;;;;5010422;28;20754;-81
2022/09/01 09:41:04;;;;;;;1.15;0.68;;;11.50;99.90;;;;;;5010417;28;20392;-81
2022/09/01 09:43:57;;;;;;;1.47;0.70;;;11.60;99.90;;;;;;5011471;28;20881;-80
2022/09/01 09:46:31;;;;;;;0.70;0.70;;;11.50;99.90;;;;;;5011474;28;20391;-81
2022/09/01 09:49:14;;;;;;;3.30;0.70;;;11.60;99.90;;;;;;5011396;28;20730;-80
2022/09/01 09:51:47;;;;;;;0.82;0.70;;;11.60;99.90;;;;;;5010104;28;20796;-80
2022/09/01 09:54:22;;;;;;;0.80;0.70;;;11.70;99.90;;;;;;5010077;28;20448;-80
2022/09/01 09:57:05;;;;;;;2.95;0.80;;;11.80;99.90;;;;;;5011327;28;20792;-80
2022/09/01 09:59:41;;;;;;;2.20;0.80;;;11.90;99.90;;;;;;5011141;28;20840;-79
2022/09/01 10:02:35;;;;;;;0.55;0.50;;;12.00;99.90;;;;;;5011217;28;20388;-80
2022/09/01 10:05:47;;;;;;;1.17;0.90;;;12.20;99.90;;;;;;5011171;28;20479;-81
2022/09/01 10:08:33;;;;;;;3.00;0.73;;;12.50;99.90;;;;;;5028674;28;20897;-80
2022/09/01 10:11:00;;;;;;;1.80;0.73;;;12.50;99.90;;;;;;5009299;28;20412;-80
2022/09/01 10:13:29;;;;;;;1.58;0.70;;;12.30;99.90;;;;;;5011079;28;20430;-81
2022/09/01 10:16:02;;;;;;;1.00;0.77;;;12.10;99.90;;;;;;5011019;28;20394;-81
2022/09/01 10:18:39;;;;;;;1.67;0.70;;;11.90;99.90;;;;;;5009808;28;20494;-80
2022/09/01 10:21:21;;;;;;;0.70;0.70;;;11.90;99.90;;;;;;5009652;28;20392;-80
2022/09/01 10:23:49;;;;;;;3.10;0.70;;;11.90;99.90;;;;;;5010898;28;20460;-80
2022/09/01 10:26:23;;;;;;;1.17;0.70;;;12.00;99.90;;;;;;5010788;28;20387;-80
2022/09/01 10:29:08;;;;;;;1.15;0.70;;;12.20;99.90;;;;;;5010790;28;20406;-81
2022/09/01 10:31:40;;;;;;;1.80;0.70;;;12.30;99.90;;;;;;5009651;28;20753;-81
2022/09/01 10:34:15;;;;;;;0.95;0.60;;;12.30;99.90;;;;;;5009377;28;20384;-80
2022/09/01 10:36:47;;;;;;;1.27;0.60;;;12.50;99.90;;;;;;5010671;28;20873;-81
2022/09/01 10:39:23;;;;;;;1.50;0.70;;;12.50;99.90;;;;;;5010619;28;20392;-79
2022/09/01 10:42:07;;;;;;;1.85;0.70;;;12.70;99.90;;;;;;5010657;28;20812;-78
2022/09/01 10:44:37;;;;;;;1.98;0.77;;;12.90;99.90;;;;;;5010518;28;20977;-81
2022/09/01 10:47:10;;;;;;;1.85;0.80;;;12.80;99.90;;;;;;5010624;28;20770;-81
2022/09/01 10:49:45;;;;;;;1.67;0.80;;;12.80;99.90;;;;;;5010479;28;20771;-81
2022/09/01 10:52:41;;;;;;;1.00;0.60;;;12.90;99.90;;;;;;5010773;28;20399;-81
2022/09/01 10:55:15;;;;;;;0.98;0.70;;;12.90;99.90;;;;;;5010457;28;20387;-81
2022/09/01 10:58:23;;;;;;;3.10;0.63;;;12.90;99.90;;;;;;5010330;28;20394;-80
2022/09/01 11:01:13;;;;;;;1.60;0.68;;;13.20;99.90;;;;;;5010386;28;20430;-80
2022/09/01 11:04:00;;;;;;;2.10;0.70;;;13.20;99.90;;;;;;5010279;28;20395;-80
2022/09/01 11:06:42;;;;;;;1.80;0.60;;;13.50;99.90;;;;;;5010205;28;20398;-80
2022/09/01 11:09:42;;;;;;;2.28;0.63;;;13.50;99.90;;;;;;5010100;28;20406;-81
2022/09/01 11:12:40;;;;;;;1.83;0.80;;;13.60;99.90;;;;;;5010147;28;20395;-81
2022/09/01 11:15:14;;;;;;;1.08;0.50;;;13.70;99.90;;;;;;5010100;28;20395;-80
2022/09/01 11:17:52;;;;;;;0.90;0.70;;;13.60;99.90;;;;;;5010035;28;20857;-81
2022/09/01 11:20:19;;;;;;;0.70;0.50;;;13.80;99.90;;;;;;5009631;28;20392;-81
2022/09/01 11:22:56;;;;;;;1.70;0.75;;;13.80;99.90;;;;;;5009831;28;20406;-80
2022/09/01 11:25:33;;;;;;;0.70;0.60;;;13.90;99.90;;;;;;5010112;28;20482;-81
2022/09/01 11:28:12;;;;;;;1.38;0.60;;;14.00;99.90;;;;;;5010205;28;20391;-80
2022/09/01 11:30:51;;;;;;;0.60;0.60;;;13.80;99.90;;;;;;5009790;28;20403;-81
2022/09/01 11:33:31;;;;;;;0.80;0.50;;;13.60;99.90;;;;;;5009821;28;20387;-81
2022/09/01 11:36:05;;;;;;;0.50;0.50;;;13.60;99.90;;;;;;5009770;28;20475;-82
2022/09/01 11:38:49;;;;;;;0.77;0.40;;;13.50;99.90;;;;;;5009991;28;20379;-81
2022/09/01 11:41:22;;;;;;;0.50;0.50;;;13.80;99.90;;;;;;5009687;28;20565;-81
2022/09/01 11:43:53;;;;;;;0.90;0.50;;;14.00;99.90;;;;;;5009654;28;20419;-81
2022/09/01 11:46:25;;;;;;;1.30;0.60;;;14.00;99.90;;;;;;5009525;28;20448;-81
2022/09/01 11:48:54;;;;;;;0.77;0.40;;;13.90;99.90;;;;;;5008365;28;20395;-80
2022/09/01 11:51:22;;;;;;;0.50;0.40;;;13.80;99.90;;;;;;5041125;28;20417;-80
2022/09/01 11:53:57;;;;;;;0.80;0.50;;;13.40;99.90;;;;;;5009529;28;20419;-81
2022/09/01 11:56:27;;;;;;;0.82;0.50;;;13.20;99.90;;;;;;5009611;28;20411;-80
2022/09/01 11:58:54;;;;;;;0.77;0.60;;;13.00;99.90;;;;;;5009423;28;20890;-81
2022/09/01 12:01:38;;;;;;;1.33;0.60;;;12.90;99.90;;;;;;5009158;28;20395;-81
2022/09/01 12:04:34;;;;;;;1.20;0.63;;;13.20;99.90;;;;;;5009322;28;20387;-80
2022/09/01 12:07:13;;;;;;;1.60;0.50;;;13.80;99.90;;;;;;5009350;28;20895;-81
2022/09/01 12:09:43;;;;;;;4.97;1.10;;;13.80;99.90;;;;;;5009189;28;20398;-79
2022/09/01 12:12:36;;;;;;;4.95;0.80;;;13.60;99.90;;;;;;5008085;28;20854;-80
2022/09/01 12:15:26;;;;;;;2.87;0.70;;;13.50;99.90;;;;;;5009165;28;20387;-81
2022/09/01 12:18:18;;;;;;;1.97;0.70;;;13.60;99.90;;;;;;5009141;28;20387;-81
2022/09/01 12:20:48;;;;;;;1.50;0.70;;;14.10;99.90;;;;;;5009122;28;20496;-80
2022/09/01 12:23:27;;;;;;;1.38;0.68;;;13.90;99.90;;;;;;5007705;28;20486;-81
2022/09/01 12:26:11;;;;;;;2.55;0.60;;;13.60;99.90;;;;;;5007781;28;20418;-81
2022/09/01 12:28:40;;;;;;;1.23;0.52;;;13.50;99.90;;;;;;5009011;28;20924;-80
2022/09/01 12:31:14;;;;;;;1.33;0.55;;;13.40;99.90;;;;;;5040578;28;20421;-81
2022/09/01 12:33:43;;;;;;;0.80;0.50;;;13.20;99.90;;;;;;5008253;28;20953;-80
2022/09/01 12:36:18;;;;;;;2.60;0.70;;;13.20;99.90;;;;;;5007610;28;20395;-80
2022/09/01 12:38:46;;;;;;;5.72;1.00;;;13.30;99.90;;;;;;5009016;28;20391;-80
2022/09/01 12:41:33;;;;;;;0.98;0.60;;;13.60;99.90;;;;;;5007900;28;20402;-81
2022/09/01 12:44:33;;;;;;;0.93;0.60;;;13.90;99.90;;;;;;5009113;28;20471;-82
2022/09/01 12:47:05;;;;;;;2.08;0.90;;;14.00;99.90;;;;;;5008762;28;20383;-81
2022/09/01 12:49:41;;;;;;;2.60;0.70;;;14.00;99.90;;;;;;5008709;28;20391;-81
2022/09/01 12:52:24;;;;;;;1.02;0.70;;;13.80;99.90;;;;;;5008707;28;20436;-80
2022/09/01 12:54:54;;;;;;;2.40;0.70;;;13.70;99.90;;;;;;5008691;28;20395;-81
2022/09/01 12:57:53;;;;;;;1.00;0.70;;;13.80;99.90;;;;;;5008645;28;20430;-81
2022/09/01 13:00:22;;;;;;;1.00;0.50;;;14.00;99.90;;;;;;5008282;28;20878;-80
2022/09/01 13:02:51;;;;;;;2.03;0.60;;;14.30;99.90;;;;;;5007289;28;20410;-79
2022/09/01 13:05:43;;;;;;;0.90;0.63;;;14.40;99.90;;;;;;5007536;28;20802;-80
2022/09/01 13:08:15;;;;;;;3.00;0.73;;;14.10;99.90;;;;;;5009306;28;20429;-81
2022/09/01 13:10:47;;;;;;;4.70;0.80;;;13.80;99.90;;;;;;5008474;28;20407;-81
2022/09/01 13:13:16;;;;;;;2.85;0.70;;;13.80;99.90;;;;;;5008736;28;20437;-80
2022/09/01 13:15:50;;;;;;;2.40;0.60;;;13.90;99.90;;;;;;5008481;28;20383;-80
2022/09/01 13:18:20;;;;;;;1.42;0.60;;;13.80;99.90;;;;;;5008550;28;20403;-81
2022/09/01 13:20:50;;;;;;;0.90;0.70;;;13.70;99.90;;;;;;5008588;28;20421;-81
2022/09/01 13:23:19;;;;;;;2.38;0.70;;;13.60;99.90;;;;;;4991115;28;20457;-80
2022/09/01 13:25:47;;;;;;;1.40;0.50;;;13.50;99.90;;;;;;5008363;28;20428;-81
2022/09/01 13:28:16;;;;;;;2.72;0.50;;;13.70;99.90;;;;;;5006948;28;20419;-80
2022/09/01 13:30:50;;;;;;;1.50;0.52;;;14.00;99.90;;;;;;5008119;28;20435;-80
2022/09/01 13:33:38;;;;;;;2.05;0.50;;;14.00;99.90;;;;;;5008193;28;20391;-81
2022/09/01 13:36:26;;;;;;;3.47;0.70;;;14.20;99.90;;;;;;5008071;28;20487;-80
2022/09/01 13:39:13;;;;;;;1.63;0.60;;;14.20;99.90;;;;;;5007122;28;20403;-81
2022/09/01 13:41:42;;;;;;;3.90;0.50;;;14.10;99.90;;;;;;5006879;28;20394;-81